Impacts METAR Board INFO
IDs:

KCLT - Charlotte/Douglas In, NC, US

Updated at: 0825 UTC 12 Dec 2017
Potential Impact None Slight Moderate High
Time11/20Z 11/21Z 11/22Z 11/23Z 12/00Z 12/01Z 12/02Z 12/03Z 12/04Z 12/05Z 12/06Z 12/07Z 12/08Z
VIS10 10 10 10 10 10 10 10 10 10 10 10 10
CIG-- -- -- -- -- -- -- -- -- -- -- -- --
CoverCLRCLRCLRFEWFEWFEWCLRCLRCLRCLRCLRCLRCLR
FltCatVFRVFRVFRVFRVFRVFRVFRVFRVFRVFRVFRVFRVFR
WX--------------------------
WDir190190210170180170180160190180210210230
WSpd7 9 6 6 7 8 6 5 4 4 4 7 5
WGst-- -- -- -- -- -- -- -- -- -- -- -- --
Raw hourly METARs
KCLT 111952Z 19007KT 10SM CLR 12/M02 A3001 RMK AO2 SLP164 T01221017
KCLT 112052Z 19009KT 10SM CLR 12/M01 A3000 RMK AO2 SLP162 T01221011 56024
KCLT 112152Z 21006KT 10SM CLR 11/M01 A3000 RMK AO2 SLP161 T01111011
KCLT 112252Z 17006KT 10SM FEW250 07/M01 A2999 RMK AO2 SLP157 T00721006
KCLT 112352Z 18007KT 10SM FEW250 08/M01 A2999 RMK AO2 SLP158 T00781006 10128 20067 55005
KCLT 120052Z 17008KT 10SM FEW250 06/00 A2997 RMK AO2 SLP150 T00610000
KCLT 120152Z 18006KT 10SM CLR 06/00 A2995 RMK AO2 SLP145 T00560000
KCLT 120252Z 16005KT 10SM CLR 04/00 A2993 RMK AO2 SLP138 T00440000 56019
KCLT 120352Z 19004KT 10SM CLR 06/01 A2991 RMK AO2 SLP129 T00560006
KCLT 120452Z 18004KT 10SM CLR 04/01 A2988 RMK AO2 SLP120 T00440006 401281028
KCLT 120552Z 21004KT 10SM CLR 06/02 A2986 RMK AO2 SLP110 T00560017 10083 20039 58025
KCLT 120652Z 21007KT 10SM CLR 06/02 A2982 RMK AO2 SLP097 T00560017
KCLT 120752Z 23005KT 10SM CLR 06/02 A2980 RMK AO2 SLP089 T00610017